createdAt,value
2022-09-14T00:00:32.152Z,1.77
2022-09-14T00:02:58.926Z,2.22
2022-09-14T00:05:26.105Z,1.67
2022-09-14T00:07:52.568Z,1.80
2022-09-14T00:10:19.249Z,1.90
2022-09-14T00:12:45.781Z,2.78
2022-09-14T00:15:15.299Z,1.95
2022-09-14T00:17:41.763Z,1.83
2022-09-14T00:20:08.906Z,1.93
2022-09-14T00:22:35.594Z,2.20
2022-09-14T00:25:02.095Z,2.10
2022-09-14T00:27:28.640Z,2.50
2022-09-14T00:29:55.193Z,2.08
2022-09-14T00:32:21.742Z,2.20
2022-09-14T00:34:48.385Z,2.10
2022-09-14T00:37:14.942Z,2.20
2022-09-14T00:39:41.579Z,2.05
2022-09-14T00:42:08.171Z,2.20
2022-09-14T00:44:34.601Z,2.23
2022-09-14T00:47:02.767Z,3.22
2022-09-14T00:49:36.056Z,2.67
2022-09-14T00:52:16.500Z,2.30
2022-09-14T00:54:48.918Z,2.60
2022-09-14T00:57:17.003Z,2.33
2022-09-14T00:59:46.054Z,1.90
2022-09-14T01:02:16.904Z,2.25
2022-09-14T01:04:44.175Z,3.08
2022-09-14T01:07:38.899Z,2.20
2022-09-14T01:10:26.992Z,2.20
2022-09-14T01:13:31.020Z,2.20
2022-09-14T01:16:29.128Z,2.00
2022-09-14T01:18:58.711Z,2.30
2022-09-14T01:21:31.945Z,1.60
2022-09-14T01:24:06.367Z,2.30
2022-09-14T01:26:54.837Z,2.35
2022-09-14T01:29:41.749Z,1.80
2022-09-14T01:32:20.086Z,1.73
2022-09-14T01:34:53.771Z,1.95
2022-09-14T01:37:26.224Z,2.23
2022-09-14T01:39:59.400Z,2.22
2022-09-14T01:42:28.846Z,2.17
2022-09-14T01:45:02.751Z,2.13
2022-09-14T01:47:35.829Z,1.70
2022-09-14T01:50:17.363Z,1.57
2022-09-14T01:52:51.615Z,1.65
2022-09-14T01:55:37.435Z,1.77
2022-09-14T01:58:12.176Z,1.70
2022-09-14T02:00:44.268Z,1.92
2022-09-14T02:03:22.301Z,1.80
2022-09-14T02:06:11.182Z,2.30
2022-09-14T02:08:38.053Z,1.85
2022-09-14T02:11:04.675Z,2.40
2022-09-14T02:13:31.374Z,2.25
2022-09-14T02:15:58.092Z,2.23
2022-09-14T02:18:24.891Z,1.83
2022-09-14T02:21:16.172Z,2.08
2022-09-14T02:23:42.846Z,2.17
2022-09-14T02:26:09.650Z,2.38
2022-09-14T02:28:36.469Z,1.70
2022-09-14T02:31:21.314Z,1.92
2022-09-14T02:34:18.763Z,1.73
2022-09-14T02:36:45.221Z,2.10
2022-09-14T02:39:28.471Z,2.55
2022-09-14T02:42:02.350Z,2.13
2022-09-14T02:44:47.987Z,1.95
2022-09-14T02:47:21.381Z,2.25
2022-09-14T02:49:56.602Z,1.90
2022-09-14T02:52:33.003Z,2.13
2022-09-14T02:55:12.124Z,1.77
2022-09-14T02:58:05.751Z,2.10
2022-09-14T03:00:36.767Z,2.13
2022-09-14T03:03:08.517Z,2.03
2022-09-14T03:05:35.594Z,2.22
2022-09-14T03:08:04.002Z,1.90
2022-09-14T03:10:31.787Z,1.67
2022-09-14T03:12:58.860Z,1.73
2022-09-14T03:15:26.171Z,1.98
2022-09-14T03:17:53.113Z,2.30
2022-09-14T03:20:22.735Z,2.43
2022-09-14T03:22:49.583Z,2.03
2022-09-14T03:25:16.766Z,1.90
2022-09-14T03:27:47.756Z,2.63
2022-09-14T03:30:14.249Z,1.65
2022-09-14T03:32:40.855Z,3.20
2022-09-14T03:35:07.898Z,1.55
2022-09-14T03:37:38.365Z,2.08
2022-09-14T03:40:05.892Z,1.67
2022-09-14T03:42:32.630Z,1.73
2022-09-14T03:44:59.244Z,1.63
2022-09-14T03:47:26.693Z,2.17
2022-09-14T03:49:53.236Z,2.03
2022-09-14T03:52:19.980Z,1.83
2022-09-14T03:54:46.614Z,2.03
2022-09-14T03:57:13.159Z,1.90
2022-09-14T03:59:43.616Z,1.90
2022-09-14T04:02:10.490Z,1.83
2022-09-14T04:04:37.143Z,1.83
2022-09-14T04:07:03.688Z,1.75
2022-09-14T04:09:30.221Z,1.90
2022-09-14T04:11:56.700Z,2.15
2022-09-14T04:14:24.018Z,1.85
2022-09-14T04:16:50.545Z,3.10
2022-09-14T04:19:17.561Z,2.30
2022-09-14T04:21:44.147Z,2.20
2022-09-14T04:24:15.701Z,1.95
2022-09-14T04:26:43.679Z,1.30
2022-09-14T04:29:11.126Z,2.20
2022-09-14T04:31:37.715Z,1.77
2022-09-14T04:34:04.530Z,1.70
2022-09-14T04:36:31.630Z,1.92
2022-09-14T04:39:02.990Z,1.90
2022-09-14T04:41:31.433Z,2.20
2022-09-14T04:43:58.975Z,1.83
2022-09-14T04:46:31.091Z,1.80
2022-09-14T04:48:58.158Z,1.90
2022-09-14T04:51:27.486Z,1.95
2022-09-14T04:53:56.515Z,2.10
2022-09-14T04:56:24.351Z,1.92
2022-09-14T04:58:53.802Z,2.50
2022-09-14T05:01:25.304Z,1.92
2022-09-14T05:03:53.160Z,1.92
2022-09-14T05:06:22.426Z,2.42
2022-09-14T05:08:50.230Z,2.25
2022-09-14T05:11:19.751Z,2.20
2022-09-14T05:13:49.932Z,1.48
2022-09-14T05:16:23.098Z,2.22
2022-09-14T05:18:51.782Z,2.10
2022-09-14T05:21:20.319Z,2.00
2022-09-14T05:23:47.869Z,1.90
2022-09-14T05:26:14.803Z,2.00
2022-09-14T05:28:41.617Z,2.20
2022-09-14T05:31:11.282Z,1.83
2022-09-14T05:33:38.019Z,2.10
2022-09-14T05:36:06.963Z,1.87
2022-09-14T05:38:35.090Z,2.22
2022-09-14T05:41:01.687Z,1.55
2022-09-14T05:43:29.593Z,2.08
2022-09-14T05:45:56.567Z,2.40
2022-09-14T05:48:23.171Z,2.43
2022-09-14T05:50:49.683Z,2.00
2022-09-14T05:53:16.186Z,2.42
2022-09-14T05:55:42.760Z,2.00
2022-09-14T05:58:10.730Z,2.17
2022-09-14T06:00:37.245Z,2.50
2022-09-14T06:03:04.231Z,1.90
2022-09-14T06:05:31.618Z,2.13
2022-09-14T06:07:58.227Z,2.22
2022-09-14T06:10:24.740Z,2.75
2022-09-14T06:12:55.284Z,2.23
2022-09-14T06:15:24.687Z,2.45
2022-09-14T06:17:51.362Z,2.25
2022-09-14T06:20:18.935Z,2.22
2022-09-14T06:22:45.569Z,2.15
2022-09-14T06:25:12.212Z,3.37
2022-09-14T06:27:38.750Z,2.97
2022-09-14T06:30:05.907Z,2.17
2022-09-14T06:32:32.584Z,2.92
2022-09-14T06:34:59.134Z,2.50
2022-09-14T06:37:25.668Z,2.30
2022-09-14T06:39:52.354Z,3.42
2022-09-14T06:42:18.990Z,2.90
2022-09-14T06:44:47.428Z,2.40
2022-09-14T06:47:13.992Z,2.50
2022-09-14T06:49:40.554Z,2.87
2022-09-14T06:52:07.244Z,2.60
2022-09-14T06:54:33.806Z,2.65
2022-09-14T06:57:00.336Z,3.40
2022-09-14T06:59:26.875Z,3.13
2022-09-14T07:01:53.466Z,3.03
2022-09-14T07:04:20.150Z,2.47
2022-09-14T07:06:49.072Z,2.53
2022-09-14T07:09:17.673Z,2.97
2022-09-14T07:11:44.768Z,2.42
2022-09-14T07:14:12.006Z,3.00
2022-09-14T07:16:40.014Z,2.95
2022-09-14T07:19:10.139Z,2.70
2022-09-14T07:21:36.856Z,2.72
2022-09-14T07:24:03.844Z,3.72
2022-09-14T07:26:33.656Z,2.57
2022-09-14T07:29:04.021Z,2.70
2022-09-14T07:31:40.838Z,2.70
2022-09-14T07:34:07.648Z,2.80
2022-09-14T07:36:36.028Z,2.25
2022-09-14T07:39:05.305Z,3.07
2022-09-14T07:41:34.219Z,2.78
2022-09-14T07:44:03.217Z,2.70
2022-09-14T07:46:35.083Z,2.80
2022-09-14T07:49:02.908Z,2.60
2022-09-14T07:51:30.832Z,2.70
2022-09-14T07:53:58.839Z,3.30
2022-09-14T07:56:25.961Z,3.58
2022-09-14T07:59:11.901Z,2.97
2022-09-14T08:01:44.231Z,2.83
2022-09-14T08:04:11.129Z,3.07
2022-09-14T08:06:37.815Z,3.05
2022-09-14T08:09:08.620Z,2.58
2022-09-14T08:11:35.813Z,3.00
2022-09-14T08:14:10.202Z,3.47
2022-09-14T08:16:38.893Z,2.30
2022-09-14T08:19:08.120Z,2.70
2022-09-14T08:21:35.763Z,3.33
2022-09-14T08:24:04.298Z,3.92
2022-09-14T08:26:31.475Z,2.97
2022-09-14T08:29:01.964Z,2.87
2022-09-14T08:31:29.193Z,3.20
2022-09-14T08:33:55.701Z,3.13
2022-09-14T08:36:23.546Z,2.70
2022-09-14T08:38:51.242Z,2.83
2022-09-14T08:41:36.067Z,2.73
2022-09-14T08:44:13.636Z,2.85
2022-09-14T08:46:49.652Z,3.55
2022-09-14T08:49:38.095Z,3.08
2022-09-14T08:52:05.457Z,3.03
2022-09-14T08:54:37.281Z,3.63
2022-09-14T08:57:15.180Z,3.33
2022-09-14T08:59:50.956Z,3.85
2022-09-14T09:02:52.569Z,3.42
2022-09-14T09:05:57.648Z,4.10
2022-09-14T09:08:30.056Z,4.00
2022-09-14T09:11:00.120Z,4.30
2022-09-14T09:13:31.748Z,4.30
2022-09-14T09:16:02.317Z,4.13
2022-09-14T09:18:58.032Z,4.13
2022-09-14T09:21:32.551Z,3.60
2022-09-14T09:24:22.440Z,3.75
2022-09-14T09:26:49.076Z,3.72
2022-09-14T09:29:16.025Z,3.38
2022-09-14T09:31:52.589Z,3.47
2022-09-14T09:34:26.700Z,3.80
2022-09-14T09:36:55.845Z,4.72
2022-09-14T09:39:25.998Z,3.15
2022-09-14T09:42:03.557Z,3.40
2022-09-14T09:44:30.155Z,2.92
2022-09-14T09:47:00.624Z,3.07
2022-09-14T09:49:38.689Z,3.20
2022-09-14T09:52:17.832Z,2.83
2022-09-14T09:54:51.489Z,3.10
2022-09-14T09:57:36.312Z,3.33
2022-09-14T10:00:09.018Z,3.33
2022-09-14T10:02:35.589Z,2.63
2022-09-14T10:05:09.231Z,3.55
2022-09-14T10:08:01.303Z,3.63
2022-09-14T10:10:39.235Z,4.15
2022-09-14T10:13:16.062Z,3.73
2022-09-14T10:15:43.577Z,3.78
2022-09-14T10:18:13.215Z,3.88
2022-09-14T10:20:44.119Z,3.80
2022-09-14T10:23:19.827Z,3.72
2022-09-14T10:25:51.830Z,3.77
2022-09-14T10:28:31.372Z,3.75
2022-09-14T10:31:02.621Z,3.95
2022-09-14T10:33:30.102Z,3.17
2022-09-14T10:35:56.563Z,3.40
2022-09-14T10:38:33.594Z,3.30
2022-09-14T10:41:18.969Z,3.60
2022-09-14T10:44:22.785Z,3.03
2022-09-14T10:47:13.758Z,3.58
2022-09-14T10:50:04.497Z,3.40
2022-09-14T10:53:09.836Z,2.97
2022-09-14T10:55:45.356Z,2.78
2022-09-14T10:58:27.601Z,3.67
2022-09-14T11:01:24.881Z,3.22
2022-09-14T11:03:57.427Z,3.85
2022-09-14T11:06:40.201Z,3.37
2022-09-14T11:09:23.548Z,3.10
2022-09-14T11:12:39.448Z,3.28
2022-09-14T11:15:22.364Z,3.33
2022-09-14T11:18:00.781Z,3.08
2022-09-14T11:20:48.897Z,3.20
2022-09-14T11:23:26.565Z,3.70
2022-09-14T11:26:10.687Z,3.20
2022-09-14T11:28:56.952Z,3.45
2022-09-14T11:31:29.133Z,2.97
2022-09-14T11:34:25.290Z,4.03
2022-09-14T11:36:59.944Z,2.47
2022-09-14T11:39:33.594Z,2.40
2022-09-14T11:42:16.442Z,1.75
2022-09-14T11:44:44.947Z,1.40
2022-09-14T11:47:14.761Z,1.30
2022-09-14T11:50:14.350Z,1.55
2022-09-14T11:52:40.889Z,1.80
2022-09-14T11:55:16.241Z,1.45
2022-09-14T11:57:45.903Z,1.60
2022-09-14T12:00:24.586Z,1.67
2022-09-14T12:03:01.484Z,1.33
2022-09-14T12:05:31.771Z,1.60
2022-09-14T12:08:00.179Z,1.85
2022-09-14T12:10:27.691Z,2.00
2022-09-14T12:13:18.439Z,1.20
2022-09-14T12:15:45.396Z,1.50
2022-09-14T12:18:13.315Z,1.23
2022-09-14T12:20:43.598Z,1.27
2022-09-14T12:23:29.381Z,1.65
2022-09-14T12:26:08.373Z,1.30
2022-09-14T12:28:34.843Z,1.35
2022-09-14T12:31:02.809Z,1.13
2022-09-14T12:33:32.438Z,0.90
2022-09-14T12:36:21.613Z,0.93
2022-09-14T12:38:52.128Z,0.67
2022-09-14T12:41:18.749Z,0.95
2022-09-14T12:43:45.679Z,0.70
2022-09-14T12:46:21.765Z,0.90
2022-09-14T12:48:48.515Z,0.65
2022-09-14T12:51:27.039Z,0.80
2022-09-14T12:54:00.348Z,0.73
2022-09-14T12:56:46.882Z,1.30
2022-09-14T12:59:20.884Z,1.25
2022-09-14T13:02:18.212Z,1.45
2022-09-14T13:04:47.907Z,1.50
2022-09-14T13:07:17.880Z,1.23
2022-09-14T13:09:51.462Z,1.15
2022-09-14T13:12:43.264Z,1.42
2022-09-14T13:15:37.004Z,1.70
2022-09-14T13:18:24.850Z,1.83
2022-09-14T13:20:57.794Z,1.60
2022-09-14T13:23:51.160Z,1.48
2022-09-14T13:26:38.138Z,1.52
2022-09-14T13:29:08.277Z,1.92
2022-09-14T13:31:38.832Z,1.63
2022-09-14T13:34:06.095Z,1.67
2022-09-14T13:36:36.949Z,1.77
2022-09-14T13:39:04.668Z,1.70
2022-09-14T13:41:32.244Z,2.63
2022-09-14T13:44:00.351Z,1.83
2022-09-14T13:46:28.457Z,1.77
2022-09-14T13:48:56.043Z,2.10
2022-09-14T13:51:25.844Z,1.92
2022-09-14T13:53:55.826Z,1.58
2022-09-14T13:56:33.924Z,1.70
2022-09-14T13:59:10.550Z,1.30
2022-09-14T14:01:50.486Z,1.60
2022-09-14T14:04:27.964Z,1.40
2022-09-14T14:07:06.662Z,1.67
2022-09-14T14:09:55.023Z,1.53
2022-09-14T14:12:30.838Z,1.67
2022-09-14T14:15:03.764Z,1.50
2022-09-14T14:17:30.281Z,1.42
2022-09-14T14:19:58.901Z,1.50
2022-09-14T14:22:33.126Z,1.50
2022-09-14T14:25:16.035Z,1.50
2022-09-14T14:27:46.263Z,1.35
2022-09-14T14:30:13.354Z,1.90
2022-09-14T14:32:40.022Z,1.35
2022-09-14T14:35:18.727Z,1.60
2022-09-14T14:37:45.502Z,1.55
2022-09-14T14:40:12.833Z,1.60
2022-09-14T14:42:39.985Z,1.50
2022-09-14T14:45:07.548Z,1.90
2022-09-14T14:47:34.067Z,1.60
2022-09-14T14:50:01.201Z,1.65
2022-09-14T14:52:27.863Z,1.67
2022-09-14T14:54:54.411Z,1.20
2022-09-14T14:57:20.979Z,1.33
2022-09-14T14:59:51.655Z,1.60
2022-09-14T15:02:18.202Z,1.63
2022-09-14T15:04:44.705Z,2.65
2022-09-14T15:07:11.216Z,2.03
2022-09-14T15:09:37.723Z,1.63
2022-09-14T15:12:04.421Z,1.50
2022-09-14T15:14:31.061Z,1.92
2022-09-14T15:17:00.273Z,1.88
2022-09-14T15:19:27.402Z,2.03
2022-09-14T15:21:57.385Z,2.22
2022-09-14T15:24:27.503Z,2.20
2022-09-14T15:26:54.359Z,2.40
2022-09-14T15:29:20.877Z,2.33
2022-09-14T15:31:47.517Z,1.92
2022-09-14T15:34:14.204Z,2.00
2022-09-14T15:36:43.914Z,2.40
2022-09-14T15:39:13.663Z,2.25
2022-09-14T15:41:40.826Z,2.38
2022-09-14T15:44:07.961Z,3.60
2022-09-14T15:46:34.619Z,2.70
2022-09-14T15:49:06.177Z,2.87
2022-09-14T15:51:34.159Z,3.90
2022-09-14T15:54:01.641Z,2.63
2022-09-14T15:56:28.226Z,3.03
2022-09-14T15:58:58.657Z,3.30
2022-09-14T16:01:25.451Z,3.00
2022-09-14T16:04:03.755Z,2.85
2022-09-14T16:06:31.212Z,2.78
2022-09-14T16:09:00.253Z,3.47
2022-09-14T16:11:26.832Z,3.78
2022-09-14T16:13:53.579Z,2.97
2022-09-14T16:16:21.470Z,3.63
2022-09-14T16:18:50.130Z,3.08
2022-09-14T16:21:17.883Z,4.18
2022-09-14T16:23:53.332Z,3.20
2022-09-14T16:26:22.796Z,3.40
2022-09-14T16:28:51.636Z,3.20
2022-09-14T16:31:21.613Z,3.38
2022-09-14T16:33:51.406Z,3.15
2022-09-14T16:36:27.036Z,3.88
2022-09-14T16:38:57.955Z,3.93
2022-09-14T16:41:25.009Z,3.30
2022-09-14T16:43:56.104Z,2.97
2022-09-14T16:46:23.430Z,3.00
2022-09-14T16:48:50.324Z,2.78
2022-09-14T16:51:19.705Z,3.10
2022-09-14T16:53:47.431Z,3.33
2022-09-14T16:56:20.343Z,3.38
2022-09-14T16:58:48.839Z,2.75
2022-09-14T17:01:16.587Z,3.28
2022-09-14T17:03:45.113Z,2.90
2022-09-14T17:06:14.353Z,2.65
2022-09-14T17:08:43.937Z,3.00
2022-09-14T17:11:11.914Z,3.33
2022-09-14T17:13:39.044Z,3.33
2022-09-14T17:16:08.490Z,3.47
2022-09-14T17:18:36.653Z,3.70
2022-09-14T17:21:07.234Z,3.83
2022-09-14T17:23:34.408Z,2.70
2022-09-14T17:26:02.731Z,3.10
2022-09-14T17:28:30.331Z,3.33
2022-09-14T17:30:59.503Z,2.90
2022-09-14T17:33:26.917Z,3.08
2022-09-14T17:35:55.676Z,2.92
2022-09-14T17:38:24.370Z,3.10
2022-09-14T17:40:51.860Z,4.47
2022-09-14T17:43:21.054Z,3.78
2022-09-14T17:45:55.753Z,3.92
2022-09-14T17:48:23.720Z,3.38
2022-09-14T17:50:50.941Z,4.00
2022-09-14T17:53:17.607Z,4.27
2022-09-14T17:55:44.163Z,4.00
2022-09-14T17:58:10.751Z,4.63
2022-09-14T18:00:37.507Z,4.25
2022-09-14T18:03:05.004Z,4.35
2022-09-14T18:05:32.276Z,4.47
2022-09-14T18:07:58.998Z,4.15
2022-09-14T18:10:25.575Z,4.32
2022-09-14T18:12:53.147Z,4.43
2022-09-14T18:15:20.931Z,4.32
2022-09-14T18:17:47.488Z,4.07
2022-09-14T18:20:15.017Z,4.00
2022-09-14T18:22:41.654Z,4.97
2022-09-14T18:25:09.576Z,4.25
2022-09-14T18:27:36.237Z,4.40
2022-09-14T18:30:03.007Z,4.60
2022-09-14T18:32:29.588Z,4.53
2022-09-14T18:34:56.173Z,5.65
2022-09-14T18:37:23.474Z,5.20
2022-09-14T18:39:50.212Z,4.45
2022-09-14T18:42:16.859Z,6.10
2022-09-14T18:44:43.454Z,10.02
2022-09-14T18:47:10.112Z,9.75
2022-09-14T18:49:36.686Z,15.18
2022-09-14T18:52:03.395Z,15.90
2022-09-14T18:54:30.098Z,15.93
2022-09-14T18:56:56.651Z,16.60
2022-09-14T18:59:23.186Z,15.57
2022-09-14T19:01:50.149Z,14.52
2022-09-14T19:04:16.835Z,10.48
2022-09-14T19:06:44.522Z,9.37
2022-09-14T19:09:11.532Z,6.80
2022-09-14T19:11:38.105Z,7.07
2022-09-14T19:14:12.017Z,6.43
2022-09-14T19:16:40.548Z,7.15
2022-09-14T19:19:08.902Z,6.13
2022-09-14T19:21:35.861Z,5.82
2022-09-14T19:24:06.367Z,5.28
2022-09-14T19:26:45.737Z,4.80
2022-09-14T19:29:14.594Z,5.25
2022-09-14T19:31:41.263Z,5.60
2022-09-14T19:34:07.920Z,5.70
2022-09-14T19:36:34.957Z,5.45
2022-09-14T19:39:02.738Z,5.47
2022-09-14T19:41:31.519Z,5.75
2022-09-14T19:43:58.673Z,5.43
2022-09-14T19:46:25.749Z,5.90
2022-09-14T19:48:53.133Z,5.30
2022-09-14T19:51:26.815Z,5.50
2022-09-14T19:53:55.392Z,5.57
2022-09-14T19:56:27.512Z,6.13
2022-09-14T19:58:56.045Z,5.00
2022-09-14T20:01:25.463Z,7.15
2022-09-14T20:03:52.901Z,5.68
2022-09-14T20:06:29.684Z,5.57
2022-09-14T20:08:58.966Z,5.27
2022-09-14T20:11:27.084Z,5.40
2022-09-14T20:13:55.520Z,4.93
2022-09-14T20:16:26.271Z,6.03
2022-09-14T20:18:53.008Z,5.32
2022-09-14T20:21:22.990Z,5.53
2022-09-14T20:24:17.700Z,5.82
2022-09-14T20:26:49.428Z,6.05
2022-09-14T20:29:18.128Z,5.60
2022-09-14T20:31:45.207Z,6.00
2022-09-14T20:34:12.887Z,5.60
2022-09-14T20:36:40.036Z,6.10
2022-09-14T20:39:07.017Z,4.90
2022-09-14T20:41:35.319Z,5.53
2022-09-14T20:44:02.994Z,6.28
2022-09-14T20:46:35.612Z,7.27
2022-09-14T20:49:04.254Z,6.60
2022-09-14T20:51:30.853Z,6.30
2022-09-14T20:53:57.715Z,6.63
2022-09-14T20:56:27.246Z,6.90
2022-09-14T20:58:55.908Z,6.50
2022-09-14T21:01:28.122Z,6.03
2022-09-14T21:03:55.680Z,6.18
2022-09-14T21:06:26.398Z,7.32
2022-09-14T21:08:53.361Z,6.32
2022-09-14T21:11:25.218Z,6.27
2022-09-14T21:13:54.608Z,6.50
2022-09-14T21:16:22.980Z,6.47
2022-09-14T21:18:56.137Z,6.43
2022-09-14T21:21:23.236Z,6.20
2022-09-14T21:23:50.536Z,6.60
2022-09-14T21:26:19.618Z,7.53
2022-09-14T21:28:46.640Z,6.38
2022-09-14T21:31:19.566Z,5.97
2022-09-14T21:33:54.263Z,6.47
2022-09-14T21:36:29.410Z,6.27
2022-09-14T21:38:59.617Z,6.65
2022-09-14T21:41:28.666Z,6.60
2022-09-14T21:43:55.752Z,5.90
2022-09-14T21:46:22.517Z,5.80
2022-09-14T21:48:49.536Z,6.63
2022-09-14T21:51:25.160Z,6.53
2022-09-14T21:53:54.264Z,6.55
2022-09-14T21:56:23.597Z,6.40
2022-09-14T21:58:51.994Z,6.75
2022-09-14T22:01:19.629Z,6.73
2022-09-14T22:03:46.870Z,6.28
2022-09-14T22:06:16.212Z,6.32
2022-09-14T22:08:43.882Z,6.60
2022-09-14T22:11:25.243Z,6.95
2022-09-14T22:13:54.343Z,6.77
2022-09-14T22:16:21.385Z,6.93
2022-09-14T22:18:53.605Z,6.38
2022-09-14T22:21:21.505Z,7.18
2022-09-14T22:23:53.138Z,6.53
2022-09-14T22:26:20.663Z,6.90
2022-09-14T22:28:49.195Z,6.72
2022-09-14T22:31:17.489Z,6.47
2022-09-14T22:33:44.510Z,6.80
2022-09-14T22:36:12.135Z,6.90
2022-09-14T22:38:41.003Z,6.90
2022-09-14T22:41:12.632Z,6.80
2022-09-14T22:43:40.160Z,8.35
2022-09-14T22:46:08.378Z,7.70
2022-09-14T22:48:36.008Z,6.63
2022-09-14T22:51:04.639Z,7.47
2022-09-14T22:53:31.669Z,7.20
2022-09-14T22:55:58.414Z,6.63
2022-09-14T22:58:27.070Z,6.68
2022-09-14T23:00:54.033Z,7.70
2022-09-14T23:03:20.920Z,6.83
2022-09-14T23:05:53.357Z,8.20
2022-09-14T23:08:19.969Z,7.20
2022-09-14T23:10:48.013Z,6.60
2022-09-14T23:13:15.414Z,7.05
2022-09-14T23:15:42.384Z,7.23
2022-09-14T23:18:09.565Z,7.82
2022-09-14T23:20:41.747Z,6.72
2022-09-14T23:23:09.687Z,6.63
2022-09-14T23:25:37.790Z,7.15
2022-09-14T23:28:06.260Z,6.77
2022-09-14T23:30:33.584Z,6.68
2022-09-14T23:33:00.828Z,6.47
2022-09-14T23:35:28.195Z,7.70
2022-09-14T23:37:54.891Z,7.35
2022-09-14T23:40:21.975Z,7.90
2022-09-14T23:42:48.611Z,7.93
2022-09-14T23:45:15.504Z,7.15
2022-09-14T23:47:42.058Z,8.55
2022-09-14T23:50:09.209Z,8.00
2022-09-14T23:52:36.893Z,7.30
2022-09-14T23:55:04.404Z,9.07
2022-09-14T23:57:30.962Z,7.05
2022-09-14T23:59:58.551Z,7.82
